sensor_id;sensor_type;location;lat;lon;timestamp;P1;durP1;ratioP1;P2;durP2;ratioP2
40459;SDS011;26164;51.138;16.952;2024-03-02T00:00:36;123.82;;;64.82;;
40459;SDS011;26164;51.138;16.952;2024-03-02T00:03:19;143.82;;;71.03;;
40459;SDS011;26164;51.138;16.952;2024-03-02T00:06:31;143.15;;;71.68;;
40459;SDS011;26164;51.138;16.952;2024-03-02T00:10:19;137.73;;;70.05;;
40459;SDS011;26164;51.138;16.952;2024-03-02T00:13:11;143.55;;;73.80;;
40459;SDS011;26164;51.138;16.952;2024-03-02T00:15:55;142.20;;;73.93;;
40459;SDS011;26164;51.138;16.952;2024-03-02T00:18:30;147.73;;;74.20;;
40459;SDS011;26164;51.138;16.952;2024-03-02T00:27:04;149.25;;;76.80;;
40459;SDS011;26164;51.138;16.952;2024-03-02T00:29:37;147.70;;;77.00;;
40459;SDS011;26164;51.138;16.952;2024-03-02T00:32:16;151.50;;;76.85;;
40459;SDS011;26164;51.138;16.952;2024-03-02T00:35:04;154.48;;;77.00;;
40459;SDS011;26164;51.138;16.952;2024-03-02T00:37:33;160.45;;;79.57;;
40459;SDS011;26164;51.138;16.952;2024-03-02T00:40:12;154.88;;;78.22;;
40459;SDS011;26164;51.138;16.952;2024-03-02T00:42:42;158.65;;;77.47;;
40459;SDS011;26164;51.138;16.952;2024-03-02T00:45:12;159.70;;;78.32;;
40459;SDS011;26164;51.138;16.952;2024-03-02T00:47:53;154.38;;;79.10;;
40459;SDS011;26164;51.138;16.952;2024-03-02T00:50:20;147.77;;;76.35;;
40459;SDS011;26164;51.138;16.952;2024-03-02T00:53:15;152.07;;;74.68;;
40459;SDS011;26164;51.138;16.952;2024-03-02T00:56:15;146.68;;;68.75;;
40459;SDS011;26164;51.138;16.952;2024-03-02T00:58:49;159.40;;;76.17;;
40459;SDS011;26164;51.138;16.952;2024-03-02T01:01:32;144.73;;;70.43;;
40459;SDS011;26164;51.138;16.952;2024-03-02T01:04:18;142.85;;;73.72;;
40459;SDS011;26164;51.138;16.952;2024-03-02T01:07:01;147.38;;;72.93;;
40459;SDS011;26164;51.138;16.952;2024-03-02T01:19:23;145.02;;;70.95;;
40459;SDS011;26164;51.138;16.952;2024-03-02T01:22:55;141.60;;;72.13;;
40459;SDS011;26164;51.138;16.952;2024-03-02T01:25:23;134.25;;;70.45;;
40459;SDS011;26164;51.138;16.952;2024-03-02T01:27:51;145.57;;;72.95;;
40459;SDS011;26164;51.138;16.952;2024-03-02T01:30:20;145.32;;;73.30;;
40459;SDS011;26164;51.138;16.952;2024-03-02T01:38:52;139.02;;;70.30;;
40459;SDS011;26164;51.138;16.952;2024-03-02T01:41:43;129.25;;;68.47;;
40459;SDS011;26164;51.138;16.952;2024-03-02T01:44:35;134.95;;;70.18;;
40459;SDS011;26164;51.138;16.952;2024-03-02T01:47:24;135.52;;;68.70;;
40459;SDS011;26164;51.138;16.952;2024-03-02T01:50:05;124.15;;;67.60;;
40459;SDS011;26164;51.138;16.952;2024-03-02T01:52:52;134.68;;;67.80;;
40459;SDS011;26164;51.138;16.952;2024-03-02T01:55:30;133.60;;;68.05;;
40459;SDS011;26164;51.138;16.952;2024-03-02T01:58:02;131.27;;;68.18;;
40459;SDS011;26164;51.138;16.952;2024-03-02T02:00:33;128.65;;;66.97;;
40459;SDS011;26164;51.138;16.952;2024-03-02T02:03:01;139.30;;;67.80;;
40459;SDS011;26164;51.138;16.952;2024-03-02T02:09:33;141.05;;;68.95;;
40459;SDS011;26164;51.138;16.952;2024-03-02T02:12:37;136.30;;;68.60;;
40459;SDS011;26164;51.138;16.952;2024-03-02T02:15:29;136.18;;;69.82;;
40459;SDS011;26164;51.138;16.952;2024-03-02T02:18:10;139.57;;;70.80;;
40459;SDS011;26164;51.138;16.952;2024-03-02T02:20:37;136.45;;;70.30;;
40459;SDS011;26164;51.138;16.952;2024-03-02T02:23:05;139.50;;;69.82;;
40459;SDS011;26164;51.138;16.952;2024-03-02T02:25:33;137.32;;;67.75;;
40459;SDS011;26164;51.138;16.952;2024-03-02T02:28:00;136.77;;;69.53;;
40459;SDS011;26164;51.138;16.952;2024-03-02T02:30:29;149.35;;;71.10;;
40459;SDS011;26164;51.138;16.952;2024-03-02T02:32:58;137.63;;;68.65;;
40459;SDS011;26164;51.138;16.952;2024-03-02T02:35:24;143.35;;;69.47;;
40459;SDS011;26164;51.138;16.952;2024-03-02T02:37:55;145.02;;;72.55;;
40459;SDS011;26164;51.138;16.952;2024-03-02T02:40:22;141.02;;;70.55;;
40459;SDS011;26164;51.138;16.952;2024-03-02T02:43:03;138.25;;;71.28;;
40459;SDS011;26164;51.138;16.952;2024-03-02T02:45:44;147.18;;;70.60;;
40459;SDS011;26164;51.138;16.952;2024-03-02T02:48:12;140.13;;;69.57;;
40459;SDS011;26164;51.138;16.952;2024-03-02T02:50:38;134.70;;;60.90;;
40459;SDS011;26164;51.138;16.952;2024-03-02T02:53:19;144.40;;;70.82;;
40459;SDS011;26164;51.138;16.952;2024-03-02T02:55:45;148.10;;;70.68;;
40459;SDS011;26164;51.138;16.952;2024-03-02T02:58:11;137.40;;;69.43;;
40459;SDS011;26164;51.138;16.952;2024-03-02T03:00:37;138.93;;;66.68;;
40459;SDS011;26164;51.138;16.952;2024-03-02T03:03:29;143.85;;;70.50;;
40459;SDS011;26164;51.138;16.952;2024-03-02T03:06:10;147.35;;;69.97;;
40459;SDS011;26164;51.138;16.952;2024-03-02T03:08:59;142.70;;;67.18;;
40459;SDS011;26164;51.138;16.952;2024-03-02T03:11:44;149.82;;;69.88;;
40459;SDS011;26164;51.138;16.952;2024-03-02T03:14:16;144.75;;;68.32;;
40459;SDS011;26164;51.138;16.952;2024-03-02T03:16:59;111.57;;;50.10;;
40459;SDS011;26164;51.138;16.952;2024-03-02T03:19:48;147.10;;;73.18;;
40459;SDS011;26164;51.138;16.952;2024-03-02T03:22:52;158.15;;;74.20;;
40459;SDS011;26164;51.138;16.952;2024-03-02T03:26:03;148.07;;;69.10;;
40459;SDS011;26164;51.138;16.952;2024-03-02T03:28:30;143.70;;;70.43;;
40459;SDS011;26164;51.138;16.952;2024-03-02T03:30:55;150.48;;;70.82;;
40459;SDS011;26164;51.138;16.952;2024-03-02T03:33:22;146.93;;;70.80;;
40459;SDS011;26164;51.138;16.952;2024-03-02T03:35:47;139.77;;;68.13;;
40459;SDS011;26164;51.138;16.952;2024-03-02T03:38:13;136.32;;;67.03;;
40459;SDS011;26164;51.138;16.952;2024-03-02T03:40:39;142.30;;;69.97;;
40459;SDS011;26164;51.138;16.952;2024-03-02T03:43:05;141.23;;;68.78;;
40459;SDS011;26164;51.138;16.952;2024-03-02T03:45:31;133.25;;;64.05;;
40459;SDS011;26164;51.138;16.952;2024-03-02T03:47:57;122.13;;;61.28;;
40459;SDS011;26164;51.138;16.952;2024-03-02T03:50:24;128.02;;;62.78;;
40459;SDS011;26164;51.138;16.952;2024-03-02T03:52:50;126.40;;;62.58;;
40459;SDS011;26164;51.138;16.952;2024-03-02T03:55:16;131.70;;;65.07;;
40459;SDS011;26164;51.138;16.952;2024-03-02T03:57:42;130.32;;;60.88;;
40459;SDS011;26164;51.138;16.952;2024-03-02T04:00:07;130.45;;;59.40;;
40459;SDS011;26164;51.138;16.952;2024-03-02T04:02:38;137.43;;;63.78;;
40459;SDS011;26164;51.138;16.952;2024-03-02T04:05:06;126.65;;;63.70;;
40459;SDS011;26164;51.138;16.952;2024-03-02T04:07:35;126.18;;;61.40;;
40459;SDS011;26164;51.138;16.952;2024-03-02T04:10:09;123.68;;;61.65;;
40459;SDS011;26164;51.138;16.952;2024-03-02T04:12:37;113.32;;;57.80;;
40459;SDS011;26164;51.138;16.952;2024-03-02T04:15:03;117.72;;;58.20;;
40459;SDS011;26164;51.138;16.952;2024-03-02T04:17:32;119.45;;;57.22;;
40459;SDS011;26164;51.138;16.952;2024-03-02T04:19:59;117.47;;;57.00;;
40459;SDS011;26164;51.138;16.952;2024-03-02T04:22:26;117.93;;;58.88;;
40459;SDS011;26164;51.138;16.952;2024-03-02T04:24:52;111.80;;;56.92;;
40459;SDS011;26164;51.138;16.952;2024-03-02T04:27:19;115.70;;;56.30;;
40459;SDS011;26164;51.138;16.952;2024-03-02T04:29:44;109.03;;;52.67;;
40459;SDS011;26164;51.138;16.952;2024-03-02T04:32:10;116.63;;;59.42;;
40459;SDS011;26164;51.138;16.952;2024-03-02T04:34:36;119.70;;;58.17;;
40459;SDS011;26164;51.138;16.952;2024-03-02T04:37:02;111.55;;;56.35;;
40459;SDS011;26164;51.138;16.952;2024-03-02T04:39:28;117.15;;;57.47;;
40459;SDS011;26164;51.138;16.952;2024-03-02T04:41:54;115.70;;;56.17;;
40459;SDS011;26164;51.138;16.952;2024-03-02T04:44:20;112.63;;;57.83;;
40459;SDS011;26164;51.138;16.952;2024-03-02T04:46:46;116.28;;;58.80;;
40459;SDS011;26164;51.138;16.952;2024-03-02T04:49:12;119.07;;;57.97;;
40459;SDS011;26164;51.138;16.952;2024-03-02T04:51:39;115.97;;;55.85;;
40459;SDS011;26164;51.138;16.952;2024-03-02T04:54:05;111.20;;;55.85;;
40459;SDS011;26164;51.138;16.952;2024-03-02T04:56:31;112.03;;;56.85;;
40459;SDS011;26164;51.138;16.952;2024-03-02T04:58:57;111.10;;;55.13;;
40459;SDS011;26164;51.138;16.952;2024-03-02T05:01:24;123.97;;;59.28;;
40459;SDS011;26164;51.138;16.952;2024-03-02T05:03:51;111.15;;;54.45;;
40459;SDS011;26164;51.138;16.952;2024-03-02T05:06:16;117.60;;;56.53;;
40459;SDS011;26164;51.138;16.952;2024-03-02T05:08:42;110.43;;;55.78;;
40459;SDS011;26164;51.138;16.952;2024-03-02T05:11:10;108.07;;;54.42;;
40459;SDS011;26164;51.138;16.952;2024-03-02T05:14:05;115.20;;;56.53;;
40459;SDS011;26164;51.138;16.952;2024-03-02T05:16:35;108.03;;;55.80;;
40459;SDS011;26164;51.138;16.952;2024-03-02T05:19:10;105.65;;;54.50;;
40459;SDS011;26164;51.138;16.952;2024-03-02T05:21:35;104.88;;;54.08;;
40459;SDS011;26164;51.138;16.952;2024-03-02T05:24:02;111.05;;;56.35;;
40459;SDS011;26164;51.138;16.952;2024-03-02T05:26:29;109.20;;;54.45;;
40459;SDS011;26164;51.138;16.952;2024-03-02T05:28:55;109.95;;;55.53;;
40459;SDS011;26164;51.138;16.952;2024-03-02T05:31:21;113.22;;;55.20;;
40459;SDS011;26164;51.138;16.952;2024-03-02T05:33:47;105.38;;;54.80;;
40459;SDS011;26164;51.138;16.952;2024-03-02T05:36:13;109.20;;;54.63;;
40459;SDS011;26164;51.138;16.952;2024-03-02T05:38:39;115.03;;;57.85;;
40459;SDS011;26164;51.138;16.952;2024-03-02T05:41:04;118.07;;;57.78;;
40459;SDS011;26164;51.138;16.952;2024-03-02T05:43:31;121.53;;;57.15;;
40459;SDS011;26164;51.138;16.952;2024-03-02T05:45:57;113.25;;;55.85;;
40459;SDS011;26164;51.138;16.952;2024-03-02T05:48:23;112.95;;;56.92;;
40459;SDS011;26164;51.138;16.952;2024-03-02T05:50:48;108.85;;;56.63;;
40459;SDS011;26164;51.138;16.952;2024-03-02T05:53:15;114.90;;;57.25;;
40459;SDS011;26164;51.138;16.952;2024-03-02T05:55:41;118.25;;;57.05;;
40459;SDS011;26164;51.138;16.952;2024-03-02T05:58:06;109.15;;;55.15;;
40459;SDS011;26164;51.138;16.952;2024-03-02T06:00:32;110.35;;;55.30;;
40459;SDS011;26164;51.138;16.952;2024-03-02T06:02:59;112.07;;;58.15;;
40459;SDS011;26164;51.138;16.952;2024-03-02T06:05:24;107.18;;;56.03;;
40459;SDS011;26164;51.138;16.952;2024-03-02T06:07:51;116.00;;;57.05;;
40459;SDS011;26164;51.138;16.952;2024-03-02T06:10:19;116.47;;;54.55;;
40459;SDS011;26164;51.138;16.952;2024-03-02T06:12:45;117.03;;;56.13;;
40459;SDS011;26164;51.138;16.952;2024-03-02T06:15:11;107.13;;;57.55;;
40459;SDS011;26164;51.138;16.952;2024-03-02T06:17:38;118.28;;;57.20;;
40459;SDS011;26164;51.138;16.952;2024-03-02T06:20:04;115.03;;;55.35;;
40459;SDS011;26164;51.138;16.952;2024-03-02T06:22:36;121.25;;;56.83;;
40459;SDS011;26164;51.138;16.952;2024-03-02T06:25:02;111.65;;;55.38;;
40459;SDS011;26164;51.138;16.952;2024-03-02T06:27:28;117.35;;;58.90;;
40459;SDS011;26164;51.138;16.952;2024-03-02T07:23:14;100.63;;;47.90;;
40459;SDS011;26164;51.138;16.952;2024-03-02T07:28:52;93.03;;;45.78;;
40459;SDS011;26164;51.138;16.952;2024-03-02T07:32:41;94.63;;;46.10;;
40459;SDS011;26164;51.138;16.952;2024-03-02T07:35:45;83.25;;;45.25;;
40459;SDS011;26164;51.138;16.952;2024-03-02T07:42:18;85.55;;;45.38;;
40459;SDS011;26164;51.138;16.952;2024-03-02T07:44:49;87.75;;;45.95;;
40459;SDS011;26164;51.138;16.952;2024-03-02T07:47:18;77.95;;;41.90;;
40459;SDS011;26164;51.138;16.952;2024-03-02T07:49:52;80.60;;;44.33;;
40459;SDS011;26164;51.138;16.952;2024-03-02T07:52:21;83.55;;;43.78;;
40459;SDS011;26164;51.138;16.952;2024-03-02T07:54:49;80.22;;;42.58;;
40459;SDS011;26164;51.138;16.952;2024-03-02T07:57:34;77.90;;;43.13;;
40459;SDS011;26164;51.138;16.952;2024-03-02T08:01:01;83.00;;;44.42;;
40459;SDS011;26164;51.138;16.952;2024-03-02T08:03:28;79.95;;;42.33;;
40459;SDS011;26164;51.138;16.952;2024-03-02T08:12:09;79.70;;;42.28;;
40459;SDS011;26164;51.138;16.952;2024-03-02T08:14:35;79.00;;;41.58;;
40459;SDS011;26164;51.138;16.952;2024-03-02T08:17:00;73.68;;;38.67;;
40459;SDS011;26164;51.138;16.952;2024-03-02T08:19:27;68.57;;;39.40;;
40459;SDS011;26164;51.138;16.952;2024-03-02T08:21:53;76.85;;;38.80;;
40459;SDS011;26164;51.138;16.952;2024-03-02T08:24:18;74.20;;;37.88;;
40459;SDS011;26164;51.138;16.952;2024-03-02T08:26:44;71.43;;;37.33;;
40459;SDS011;26164;51.138;16.952;2024-03-02T08:29:10;70.22;;;38.47;;
40459;SDS011;26164;51.138;16.952;2024-03-02T08:38:27;70.93;;;37.80;;
40459;SDS011;26164;51.138;16.952;2024-03-02T08:43:42;69.00;;;37.97;;
40459;SDS011;26164;51.138;16.952;2024-03-02T08:49:32;65.07;;;36.63;;
40459;SDS011;26164;51.138;16.952;2024-03-02T08:51:58;66.80;;;36.50;;
40459;SDS011;26164;51.138;16.952;2024-03-02T08:54:24;66.80;;;36.65;;
40459;SDS011;26164;51.138;16.952;2024-03-02T08:56:50;67.22;;;36.58;;
40459;SDS011;26164;51.138;16.952;2024-03-02T08:59:17;64.25;;;35.35;;
40459;SDS011;26164;51.138;16.952;2024-03-02T09:01:43;63.03;;;34.30;;
40459;SDS011;26164;51.138;16.952;2024-03-02T09:04:11;64.43;;;34.92;;
40459;SDS011;26164;51.138;16.952;2024-03-02T09:06:37;62.75;;;33.88;;
40459;SDS011;26164;51.138;16.952;2024-03-02T09:09:03;59.88;;;33.13;;
40459;SDS011;26164;51.138;16.952;2024-03-02T09:11:30;64.05;;;34.28;;
40459;SDS011;26164;51.138;16.952;2024-03-02T09:13:55;59.50;;;33.53;;
40459;SDS011;26164;51.138;16.952;2024-03-02T09:16:23;64.03;;;34.35;;
40459;SDS011;26164;51.138;16.952;2024-03-02T09:18:50;60.97;;;33.88;;
40459;SDS011;26164;51.138;16.952;2024-03-02T09:21:16;64.72;;;32.60;;
40459;SDS011;26164;51.138;16.952;2024-03-02T09:23:42;61.58;;;35.63;;
40459;SDS011;26164;51.138;16.952;2024-03-02T09:26:09;59.65;;;33.20;;
40459;SDS011;26164;51.138;16.952;2024-03-02T09:28:35;62.95;;;32.53;;
40459;SDS011;26164;51.138;16.952;2024-03-02T09:31:01;59.72;;;31.52;;
40459;SDS011;26164;51.138;16.952;2024-03-02T09:33:26;60.83;;;33.45;;
40459;SDS011;26164;51.138;16.952;2024-03-02T09:35:52;63.72;;;33.75;;
40459;SDS011;26164;51.138;16.952;2024-03-02T09:38:18;53.97;;;31.85;;
40459;SDS011;26164;51.138;16.952;2024-03-02T09:40:44;50.55;;;30.20;;
40459;SDS011;26164;51.138;16.952;2024-03-02T10:14:21;47.65;;;28.17;;
40459;SDS011;26164;51.138;16.952;2024-03-02T10:20:24;48.60;;;28.17;;
40459;SDS011;26164;51.138;16.952;2024-03-02T10:22:51;48.70;;;27.58;;
40459;SDS011;26164;51.138;16.952;2024-03-02T10:25:29;46.38;;;27.98;;
40459;SDS011;26164;51.138;16.952;2024-03-02T10:28:01;44.20;;;26.58;;
40459;SDS011;26164;51.138;16.952;2024-03-02T10:30:27;51.13;;;27.83;;
40459;SDS011;26164;51.138;16.952;2024-03-02T10:33:06;46.67;;;27.27;;
40459;SDS011;26164;51.138;16.952;2024-03-02T10:40:40;48.72;;;25.33;;
40459;SDS011;26164;51.138;16.952;2024-03-02T10:43:27;48.95;;;26.98;;
40459;SDS011;26164;51.138;16.952;2024-03-02T10:46:24;49.75;;;27.60;;
40459;SDS011;26164;51.138;16.952;2024-03-02T10:49:08;48.92;;;26.23;;
40459;SDS011;26164;51.138;16.952;2024-03-02T10:51:37;43.55;;;26.23;;
40459;SDS011;26164;51.138;16.952;2024-03-02T10:54:06;46.65;;;25.42;;
40459;SDS011;26164;51.138;16.952;2024-03-02T10:56:33;46.72;;;27.05;;
40459;SDS011;26164;51.138;16.952;2024-03-02T11:02:21;45.80;;;25.55;;
40459;SDS011;26164;51.138;16.952;2024-03-02T11:04:50;47.78;;;25.58;;
40459;SDS011;26164;51.138;16.952;2024-03-02T11:07:20;43.25;;;24.98;;
40459;SDS011;26164;51.138;16.952;2024-03-02T11:10:08;40.50;;;24.23;;
40459;SDS011;26164;51.138;16.952;2024-03-02T11:12:39;45.70;;;25.05;;
40459;SDS011;26164;51.138;16.952;2024-03-02T11:15:24;40.60;;;23.33;;
40459;SDS011;26164;51.138;16.952;2024-03-02T11:17:54;41.83;;;22.52;;
40459;SDS011;26164;51.138;16.952;2024-03-02T11:20:24;42.70;;;20.75;;
40459;SDS011;26164;51.138;16.952;2024-03-02T11:22:53;35.33;;;22.08;;
40459;SDS011;26164;51.138;16.952;2024-03-02T11:25:28;40.97;;;22.60;;
40459;SDS011;26164;51.138;16.952;2024-03-02T11:27:59;38.30;;;22.08;;
40459;SDS011;26164;51.138;16.952;2024-03-02T11:33:00;35.35;;;21.60;;
40459;SDS011;26164;51.138;16.952;2024-03-02T11:35:43;42.17;;;21.15;;
40459;SDS011;26164;51.138;16.952;2024-03-02T11:38:15;37.63;;;19.63;;
40459;SDS011;26164;51.138;16.952;2024-03-02T11:40:43;34.20;;;20.48;;
40459;SDS011;26164;51.138;16.952;2024-03-02T11:43:09;35.97;;;20.00;;
40459;SDS011;26164;51.138;16.952;2024-03-02T11:45:59;39.00;;;20.10;;
40459;SDS011;26164;51.138;16.952;2024-03-02T11:48:35;36.30;;;20.05;;
40459;SDS011;26164;51.138;16.952;2024-03-02T11:51:29;32.75;;;19.88;;
40459;SDS011;26164;51.138;16.952;2024-03-02T11:54:30;35.75;;;20.25;;
40459;SDS011;26164;51.138;16.952;2024-03-02T11:57:07;35.20;;;20.58;;
40459;SDS011;26164;51.138;16.952;2024-03-02T11:59:43;39.75;;;21.45;;
40459;SDS011;26164;51.138;16.952;2024-03-02T12:02:19;36.80;;;21.25;;
40459;SDS011;26164;51.138;16.952;2024-03-02T12:12:08;33.13;;;17.55;;
40459;SDS011;26164;51.138;16.952;2024-03-02T12:15:05;30.23;;;17.52;;
40459;SDS011;26164;51.138;16.952;2024-03-02T12:18:32;32.13;;;16.33;;
40459;SDS011;26164;51.138;16.952;2024-03-02T12:35:51;28.08;;;15.65;;
40459;SDS011;26164;51.138;16.952;2024-03-02T12:40:01;27.13;;;16.15;;
40459;SDS011;26164;51.138;16.952;2024-03-02T13:22:18;33.25;;;16.55;;
40459;SDS011;26164;51.138;16.952;2024-03-02T13:24:59;31.85;;;18.27;;
40459;SDS011;26164;51.138;16.952;2024-03-02T13:27:37;34.47;;;17.70;;
40459;SDS011;26164;51.138;16.952;2024-03-02T13:33:22;27.02;;;17.20;;
40459;SDS011;26164;51.138;16.952;2024-03-02T13:36:18;27.67;;;16.88;;
40459;SDS011;26164;51.138;16.952;2024-03-02T13:39:24;28.88;;;15.82;;
40459;SDS011;26164;51.138;16.952;2024-03-02T13:42:18;30.05;;;15.45;;
40459;SDS011;26164;51.138;16.952;2024-03-02T13:44:59;29.70;;;15.77;;
40459;SDS011;26164;51.138;16.952;2024-03-02T13:47:27;27.80;;;15.45;;
40459;SDS011;26164;51.138;16.952;2024-03-02T13:52:46;29.38;;;16.13;;
40459;SDS011;26164;51.138;16.952;2024-03-02T13:55:20;29.80;;;16.58;;
40459;SDS011;26164;51.138;16.952;2024-03-02T13:57:48;33.00;;;16.27;;
40459;SDS011;26164;51.138;16.952;2024-03-02T14:00:18;32.20;;;16.17;;
40459;SDS011;26164;51.138;16.952;2024-03-02T14:03:08;27.83;;;16.10;;
40459;SDS011;26164;51.138;16.952;2024-03-02T14:05:37;28.00;;;16.63;;
40459;SDS011;26164;51.138;16.952;2024-03-02T14:08:04;31.38;;;16.33;;
40459;SDS011;26164;51.138;16.952;2024-03-02T14:10:30;33.03;;;17.63;;
40459;SDS011;26164;51.138;16.952;2024-03-02T14:13:08;32.95;;;18.02;;
40459;SDS011;26164;51.138;16.952;2024-03-02T14:18:45;30.40;;;16.92;;
40459;SDS011;26164;51.138;16.952;2024-03-02T14:21:23;31.98;;;17.50;;
40459;SDS011;26164;51.138;16.952;2024-03-02T14:24:10;34.33;;;16.80;;
40459;SDS011;26164;51.138;16.952;2024-03-02T14:27:06;30.00;;;17.08;;
40459;SDS011;26164;51.138;16.952;2024-03-02T14:29:50;30.33;;;17.85;;
40459;SDS011;26164;51.138;16.952;2024-03-02T14:32:58;33.30;;;17.70;;
40459;SDS011;26164;51.138;16.952;2024-03-02T14:35:41;26.52;;;16.48;;
40459;SDS011;26164;51.138;16.952;2024-03-02T14:38:23;33.13;;;17.15;;
40459;SDS011;26164;51.138;16.952;2024-03-02T14:41:06;31.15;;;17.35;;
40459;SDS011;26164;51.138;16.952;2024-03-02T14:43:36;33.28;;;16.92;;
40459;SDS011;26164;51.138;16.952;2024-03-02T14:46:19;32.10;;;17.35;;
40459;SDS011;26164;51.138;16.952;2024-03-02T14:48:49;31.02;;;17.15;;
40459;SDS011;26164;51.138;16.952;2024-03-02T14:51:19;33.95;;;17.33;;
40459;SDS011;26164;51.138;16.952;2024-03-02T14:54:08;27.15;;;16.08;;
40459;SDS011;26164;51.138;16.952;2024-03-02T14:56:51;34.92;;;17.35;;
40459;SDS011;26164;51.138;16.952;2024-03-02T14:59:43;35.53;;;17.92;;
40459;SDS011;26164;51.138;16.952;2024-03-02T15:02:10;34.83;;;18.52;;
40459;SDS011;26164;51.138;16.952;2024-03-02T15:04:40;32.90;;;18.75;;
40459;SDS011;26164;51.138;16.952;2024-03-02T15:07:11;32.10;;;18.13;;
40459;SDS011;26164;51.138;16.952;2024-03-02T15:09:50;34.50;;;19.83;;
40459;SDS011;26164;51.138;16.952;2024-03-02T15:12:32;39.50;;;20.08;;
40459;SDS011;26164;51.138;16.952;2024-03-02T15:15:19;34.03;;;20.83;;
40459;SDS011;26164;51.138;16.952;2024-03-02T15:18:21;42.17;;;20.38;;
40459;SDS011;26164;51.138;16.952;2024-03-02T15:21:17;38.63;;;20.63;;
40459;SDS011;26164;51.138;16.952;2024-03-02T15:24:15;38.80;;;21.50;;
40459;SDS011;26164;51.138;16.952;2024-03-02T15:27:03;38.13;;;20.73;;
40459;SDS011;26164;51.138;16.952;2024-03-02T15:30:23;39.88;;;20.75;;
40459;SDS011;26164;51.138;16.952;2024-03-02T15:38:50;38.20;;;20.08;;
40459;SDS011;26164;51.138;16.952;2024-03-02T15:41:31;33.67;;;19.77;;
40459;SDS011;26164;51.138;16.952;2024-03-02T15:44:10;36.45;;;20.25;;
40459;SDS011;26164;51.138;16.952;2024-03-02T15:56:55;40.03;;;20.63;;
40459;SDS011;26164;51.138;16.952;2024-03-02T16:05:17;43.95;;;22.20;;
40459;SDS011;26164;51.138;16.952;2024-03-02T16:08:01;41.88;;;22.30;;
40459;SDS011;26164;51.138;16.952;2024-03-02T16:17:20;41.15;;;22.35;;
40459;SDS011;26164;51.138;16.952;2024-03-02T16:20:05;42.22;;;22.73;;
40459;SDS011;26164;51.138;16.952;2024-03-02T16:35:09;46.47;;;21.65;;
40459;SDS011;26164;51.138;16.952;2024-03-02T16:40:58;40.67;;;21.15;;
40459;SDS011;26164;51.138;16.952;2024-03-02T16:43:30;37.78;;;21.67;;
40459;SDS011;26164;51.138;16.952;2024-03-02T16:46:05;40.08;;;20.83;;
40459;SDS011;26164;51.138;16.952;2024-03-02T16:48:46;35.90;;;21.08;;
40459;SDS011;26164;51.138;16.952;2024-03-02T16:51:33;41.75;;;21.98;;
40459;SDS011;26164;51.138;16.952;2024-03-02T17:00:00;46.92;;;26.38;;
40459;SDS011;26164;51.138;16.952;2024-03-02T17:02:28;45.72;;;22.45;;
40459;SDS011;26164;51.138;16.952;2024-03-02T17:04:54;50.35;;;24.67;;
40459;SDS011;26164;51.138;16.952;2024-03-02T17:07:28;44.78;;;24.65;;
40459;SDS011;26164;51.138;16.952;2024-03-02T17:09:58;45.85;;;25.13;;
40459;SDS011;26164;51.138;16.952;2024-03-02T17:12:34;55.22;;;27.20;;
40459;SDS011;26164;51.138;16.952;2024-03-02T17:15:09;48.03;;;26.17;;
40459;SDS011;26164;51.138;16.952;2024-03-02T17:17:42;52.95;;;27.33;;
40459;SDS011;26164;51.138;16.952;2024-03-02T17:23:39;47.97;;;26.17;;
40459;SDS011;26164;51.138;16.952;2024-03-02T17:26:08;48.38;;;25.95;;
40459;SDS011;26164;51.138;16.952;2024-03-02T17:30:03;50.70;;;27.80;;
40459;SDS011;26164;51.138;16.952;2024-03-02T17:37:42;70.30;;;33.20;;
40459;SDS011;26164;51.138;16.952;2024-03-02T17:40:12;58.95;;;31.42;;
40459;SDS011;26164;51.138;16.952;2024-03-02T17:42:41;55.50;;;32.38;;
40459;SDS011;26164;51.138;16.952;2024-03-02T17:48:45;56.58;;;30.50;;
40459;SDS011;26164;51.138;16.952;2024-03-02T17:55:06;53.38;;;29.30;;
40459;SDS011;26164;51.138;16.952;2024-03-02T17:57:38;55.13;;;29.25;;
40459;SDS011;26164;51.138;16.952;2024-03-02T18:00:32;57.45;;;29.40;;
40459;SDS011;26164;51.138;16.952;2024-03-02T18:03:00;54.22;;;31.02;;
40459;SDS011;26164;51.138;16.952;2024-03-02T18:05:25;54.60;;;30.77;;
40459;SDS011;26164;51.138;16.952;2024-03-02T18:07:54;54.75;;;30.75;;
40459;SDS011;26164;51.138;16.952;2024-03-02T18:10:20;58.75;;;31.40;;
40459;SDS011;26164;51.138;16.952;2024-03-02T18:12:47;61.10;;;31.88;;
40459;SDS011;26164;51.138;16.952;2024-03-02T18:15:14;60.85;;;31.80;;
40459;SDS011;26164;51.138;16.952;2024-03-02T18:17:45;58.25;;;31.73;;
40459;SDS011;26164;51.138;16.952;2024-03-02T18:20:11;56.65;;;30.95;;
40459;SDS011;26164;51.138;16.952;2024-03-02T18:22:40;56.03;;;30.95;;
40459;SDS011;26164;51.138;16.952;2024-03-02T18:25:07;54.97;;;32.00;;
40459;SDS011;26164;51.138;16.952;2024-03-02T18:27:36;56.60;;;32.40;;
40459;SDS011;26164;51.138;16.952;2024-03-02T18:30:02;53.22;;;32.83;;
40459;SDS011;26164;51.138;16.952;2024-03-02T18:32:34;55.97;;;32.53;;
40459;SDS011;26164;51.138;16.952;2024-03-02T18:35:00;61.70;;;33.40;;
40459;SDS011;26164;51.138;16.952;2024-03-02T18:37:35;60.33;;;32.60;;
40459;SDS011;26164;51.138;16.952;2024-03-02T18:40:07;57.42;;;31.58;;
40459;SDS011;26164;51.138;16.952;2024-03-02T18:42:41;53.63;;;31.08;;
40459;SDS011;26164;51.138;16.952;2024-03-02T18:45:12;54.70;;;29.50;;
40459;SDS011;26164;51.138;16.952;2024-03-02T18:47:40;53.13;;;29.63;;
40459;SDS011;26164;51.138;16.952;2024-03-02T18:50:06;50.20;;;29.75;;
40459;SDS011;26164;51.138;16.952;2024-03-02T18:52:54;51.42;;;26.70;;
40459;SDS011;26164;51.138;16.952;2024-03-02T18:55:21;49.20;;;26.08;;
40459;SDS011;26164;51.138;16.952;2024-03-02T18:57:48;48.35;;;25.13;;
40459;SDS011;26164;51.138;16.952;2024-03-02T19:00:14;46.67;;;25.83;;
40459;SDS011;26164;51.138;16.952;2024-03-02T19:02:47;43.78;;;24.60;;
40459;SDS011;26164;51.138;16.952;2024-03-02T19:05:13;41.70;;;25.23;;
40459;SDS011;26164;51.138;16.952;2024-03-02T19:07:44;47.13;;;25.40;;
40459;SDS011;26164;51.138;16.952;2024-03-02T19:10:11;44.65;;;25.08;;
40459;SDS011;26164;51.138;16.952;2024-03-02T19:12:42;43.72;;;24.98;;
40459;SDS011;26164;51.138;16.952;2024-03-02T19:15:08;42.22;;;24.85;;
40459;SDS011;26164;51.138;16.952;2024-03-02T19:17:41;41.72;;;24.08;;
40459;SDS011;26164;51.138;16.952;2024-03-02T19:20:06;42.50;;;23.40;;
40459;SDS011;26164;51.138;16.952;2024-03-02T19:22:39;44.42;;;24.73;;
40459;SDS011;26164;51.138;16.952;2024-03-02T19:25:05;45.22;;;26.30;;
40459;SDS011;26164;51.138;16.952;2024-03-02T19:28:00;45.90;;;27.40;;
40459;SDS011;26164;51.138;16.952;2024-03-02T19:30:26;51.85;;;29.33;;
40459;SDS011;26164;51.138;16.952;2024-03-02T19:33:06;50.75;;;26.85;;
40459;SDS011;26164;51.138;16.952;2024-03-02T19:35:33;38.50;;;22.95;;